Time,TemperatureF,DewpointF,PressureIn,WindDirection,WindDirectionDegrees,WindSpeedMPH,WindSpeedGustMPH,Humidity,HourlyPrecipIn,Conditions,Clouds,dailyrainin,SolarRadiationWatts/m^2,SoftwareType,DateUTC
2013-02-15 00:21:00,41.0,39.0,-100.00,NNW,336,0.0,2.0,93,0.00,,,0.08,0.000000,,2013-02-15 08:21:00,
2013-02-15 00:31:00,41.0,39.0,-100.00,NNW,336,0.0,2.0,93,0.00,,,0.08,0.000000,,2013-02-15 08:31:00,
2013-02-15 00:41:00,41.0,39.0,-100.00,NNW,336,0.0,2.0,93,0.00,,,0.08,0.000000,,2013-02-15 08:41:00,
2013-02-15 00:52:00,41.0,39.0,-100.00,NNW,336,0.0,2.0,93,0.00,,,0.08,0.000000,,2013-02-15 08:52:00,
2013-02-15 01:21:00,40.0,38.0,-100.00,WNW,285,0.0,0.0,94,0.00,,,0.08,0.000000,,2013-02-15 09:21:00,
2013-02-15 01:31:00,40.0,38.0,-100.00,WNW,285,0.0,0.0,94,0.00,,,0.08,0.000000,,2013-02-15 09:31:00,
2013-02-15 01:41:00,40.0,38.0,-100.00,WNW,285,0.0,0.0,94,0.00,,,0.08,0.000000,,2013-02-15 09:41:00,
2013-02-15 01:51:00,40.0,38.0,-100.00,WNW,285,0.0,0.0,94,0.00,,,0.08,0.000000,,2013-02-15 09:51:00,
2013-02-15 02:21:00,38.0,36.0,-100.00,SSE,156,0.0,3.0,94,0.00,,,0.08,0.000000,,2013-02-15 10:21:00,
2013-02-15 02:31:00,38.0,36.0,-100.00,SSE,156,0.0,3.0,94,0.00,,,0.08,0.000000,,2013-02-15 10:31:00,
2013-02-15 02:41:00,38.0,36.0,-100.00,SSE,156,0.0,3.0,94,0.00,,,0.08,0.000000,,2013-02-15 10:41:00,
2013-02-15 02:51:00,38.0,36.0,-100.00,SSE,156,0.0,3.0,94,0.00,,,0.08,0.000000,,2013-02-15 10:51:00,
2013-02-15 03:22:00,39.0,37.0,-100.00,SSE,157,0.0,0.0,94,0.00,,,0.08,0.000000,,2013-02-15 11:22:00,
2013-02-15 03:31:00,39.0,37.0,-100.00,SSE,157,0.0,0.0,94,0.00,,,0.08,0.000000,,2013-02-15 11:31:00,
2013-02-15 03:42:00,39.0,37.0,-100.00,SSE,157,0.0,0.0,94,0.00,,,0.08,0.000000,,2013-02-15 11:42:00,
2013-02-15 03:52:00,39.0,37.0,-100.00,SSE,157,0.0,0.0,94,0.00,,,0.08,0.000000,,2013-02-15 11:52:00,
2013-02-15 04:21:00,39.0,38.0,-100.00,SE,130,0.0,0.0,95,0.00,,,0.08,0.000000,,2013-02-15 12:21:00,
2013-02-15 04:32:00,39.0,38.0,-100.00,SE,130,0.0,0.0,95,0.00,,,0.08,0.000000,,2013-02-15 12:32:00,
2013-02-15 04:42:00,39.0,38.0,-100.00,SE,130,0.0,0.0,95,0.00,,,0.08,0.000000,,2013-02-15 12:42:00,
2013-02-15 04:52:00,39.0,38.0,-100.00,SE,130,0.0,0.0,95,0.00,,,0.08,0.000000,,2013-02-15 12:52:00,
2013-02-15 05:21:00,37.0,35.0,-100.00,ESE,113,0.0,4.0,94,0.00,,,0.08,0.000000,,2013-02-15 13:21:00,
2013-02-15 05:31:00,37.0,35.0,-100.00,ESE,113,0.0,4.0,94,0.00,,,0.08,0.000000,,2013-02-15 13:31:00,
2013-02-15 05:41:00,37.0,35.0,-100.00,ESE,113,0.0,4.0,94,0.00,,,0.08,0.000000,,2013-02-15 13:41:00,
2013-02-15 05:51:00,37.0,35.0,-100.00,ESE,113,0.0,4.0,94,0.00,,,0.08,0.000000,,2013-02-15 13:51:00,
2013-02-15 06:21:00,38.0,37.0,-100.00,ESE,123,0.0,0.0,95,0.00,,,0.05,0.000000,,2013-02-15 14:21:00,
2013-02-15 06:32:00,38.0,37.0,-100.00,ESE,123,0.0,0.0,95,0.00,,,0.05,0.000000,,2013-02-15 14:32:00,
2013-02-15 06:41:00,38.0,37.0,-100.00,ESE,123,0.0,0.0,95,0.00,,,0.05,0.000000,,2013-02-15 14:41:00,
2013-02-15 06:52:00,38.0,37.0,-100.00,ESE,123,0.0,0.0,95,0.00,,,0.05,0.000000,,2013-02-15 14:52:00,
2013-02-15 07:21:00,36.0,35.0,-100.00,ESE,109,1.0,4.0,95,0.00,,,0.02,0.000000,,2013-02-15 15:21:00,
2013-02-15 07:32:00,36.0,35.0,-100.00,ESE,109,1.0,4.0,95,0.00,,,0.02,0.000000,,2013-02-15 15:32:00,
2013-02-15 07:41:00,36.0,35.0,-100.00,ESE,109,1.0,4.0,95,0.00,,,0.02,0.000000,,2013-02-15 15:41:00,
2013-02-15 07:51:00,36.0,35.0,-100.00,ESE,109,1.0,4.0,95,0.00,,,0.02,0.000000,,2013-02-15 15:51:00,
2013-02-15 08:22:00,35.0,33.0,-100.00,ESE,123,0.0,4.0,94,0.00,,,0.02,5.000000,,2013-02-15 16:22:00,
2013-02-15 08:31:00,35.0,33.0,-100.00,ESE,123,0.0,4.0,94,0.00,,,0.02,5.000000,,2013-02-15 16:31:00,
2013-02-15 08:42:00,35.0,33.0,-100.00,ESE,123,0.0,4.0,94,0.00,,,0.02,5.000000,,2013-02-15 16:42:00,
2013-02-15 08:51:00,35.0,33.0,-100.00,ESE,123,0.0,4.0,94,0.00,,,0.02,5.000000,,2013-02-15 16:51:00,
2013-02-15 09:21:00,38.0,36.0,-100.00,North,6,0.0,4.0,94,0.00,,,0.01,82.000000,,2013-02-15 17:21:00,
2013-02-15 09:32:00,38.0,36.0,-100.00,North,6,0.0,4.0,94,0.00,,,0.01,82.000000,,2013-02-15 17:32:00,
2013-02-15 09:41:00,38.0,36.0,-100.00,North,6,0.0,4.0,94,0.00,,,0.01,82.000000,,2013-02-15 17:41:00,
2013-02-15 09:52:00,38.0,36.0,-100.00,North,6,0.0,4.0,94,0.00,,,0.01,82.000000,,2013-02-15 17:52:00,
2013-02-15 10:21:00,38.0,36.0,-100.00,SSE,155,0.0,0.0,93,0.00,,,0.01,180.000000,,2013-02-15 18:21:00,
2013-02-15 10:31:00,38.0,36.0,-100.00,SSE,155,0.0,0.0,93,0.00,,,0.01,180.000000,,2013-02-15 18:31:00,
2013-02-15 10:41:00,38.0,36.0,-100.00,SSE,155,0.0,0.0,93,0.00,,,0.01,180.000000,,2013-02-15 18:41:00,
2013-02-15 10:52:00,38.0,36.0,-100.00,SSE,155,0.0,0.0,93,0.00,,,0.01,180.000000,,2013-02-15 18:52:00,
2013-02-15 11:21:00,41.0,38.0,-100.00,NW,325,0.0,3.0,88,0.00,,,0.01,311.000000,,2013-02-15 19:21:00,
2013-02-15 11:32:00,41.0,38.0,-100.00,NW,325,0.0,3.0,88,0.00,,,0.01,311.000000,,2013-02-15 19:32:00,
2013-02-15 11:41:00,41.0,38.0,-100.00,NW,325,0.0,3.0,88,0.00,,,0.01,311.000000,,2013-02-15 19:41:00,
2013-02-15 11:51:00,41.0,38.0,-100.00,NW,325,0.0,3.0,88,0.00,,,0.01,311.000000,,2013-02-15 19:51:00,
2013-02-15 12:21:00,43.0,39.0,-100.00,NW,324,0.0,3.0,85,0.00,,,0.01,372.000000,,2013-02-15 20:21:00,
2013-02-15 12:32:00,43.0,39.0,-100.00,NW,324,0.0,3.0,85,0.00,,,0.01,372.000000,,2013-02-15 20:32:00,
2013-02-15 12:42:00,43.0,39.0,-100.00,NW,324,0.0,3.0,85,0.00,,,0.01,372.000000,,2013-02-15 20:42:00,
2013-02-15 12:52:00,43.0,39.0,-100.00,NW,324,0.0,3.0,85,0.00,,,0.01,372.000000,,2013-02-15 20:52:00,
2013-02-15 13:21:00,49.0,43.0,-100.00,NW,305,0.0,4.0,80,0.00,,,0.01,490.000000,,2013-02-15 21:21:00,
2013-02-15 13:31:00,49.0,43.0,-100.00,NW,305,0.0,4.0,80,0.00,,,0.01,490.000000,,2013-02-15 21:31:00,
2013-02-15 13:42:00,49.0,43.0,-100.00,NW,305,0.0,4.0,80,0.00,,,0.01,490.000000,,2013-02-15 21:42:00,
2013-02-15 13:51:00,49.0,43.0,-100.00,NW,305,0.0,4.0,80,0.00,,,0.01,490.000000,,2013-02-15 21:51:00,
2013-02-15 14:21:00,49.0,42.0,-100.00,NW,309,0.0,4.0,76,0.00,,,0.01,551.000000,,2013-02-15 22:21:00,
2013-02-15 14:31:00,49.0,42.0,-100.00,NW,309,0.0,4.0,76,0.00,,,0.01,551.000000,,2013-02-15 22:31:00,
2013-02-15 14:41:00,49.0,42.0,-100.00,NW,309,0.0,4.0,76,0.00,,,0.01,551.000000,,2013-02-15 22:41:00,
2013-02-15 14:51:00,49.0,42.0,-100.00,NW,309,0.0,4.0,76,0.00,,,0.01,551.000000,,2013-02-15 22:51:00,
2013-02-15 15:21:00,46.0,42.0,-100.00,WNW,302,1.0,6.0,85,0.00,,,-99.99,409.000000,,2013-02-15 23:21:00,
2013-02-15 15:31:00,46.0,42.0,-100.00,WNW,302,1.0,6.0,85,0.00,,,-99.99,409.000000,,2013-02-15 23:31:00,
2013-02-15 15:41:00,46.0,42.0,-100.00,WNW,302,1.0,6.0,85,0.00,,,-99.99,409.000000,,2013-02-15 23:41:00,
2013-02-15 15:52:00,46.0,42.0,-100.00,WNW,302,1.0,6.0,85,0.00,,,-99.99,409.000000,,2013-02-15 23:52:00,
2013-02-15 16:11:00,44.0,41.0,-100.00,West,262,0.0,5.0,89,0.00,,,0.01,167.000000,,2013-02-16 00:11:00,
2013-02-15 16:21:00,44.0,41.0,-100.00,West,262,0.0,5.0,89,0.00,,,0.01,167.000000,,2013-02-16 00:21:00,
2013-02-15 16:32:00,44.0,41.0,-100.00,West,262,0.0,5.0,89,0.00,,,0.01,167.000000,,2013-02-16 00:32:00,
2013-02-15 16:41:00,44.0,41.0,-100.00,West,262,0.0,5.0,89,0.00,,,0.01,167.000000,,2013-02-16 00:41:00,
2013-02-15 16:51:00,44.0,41.0,-100.00,West,262,0.0,5.0,89,0.00,,,0.01,167.000000,,2013-02-16 00:51:00,
2013-02-15 17:21:00,41.0,39.0,-100.00,WSW,247,0.0,4.0,93,0.00,,,0.01,62.000000,,2013-02-16 01:21:00,
2013-02-15 17:31:00,41.0,39.0,-100.00,WSW,247,0.0,4.0,93,0.00,,,0.01,62.000000,,2013-02-16 01:31:00,
2013-02-15 17:41:00,41.0,39.0,-100.00,WSW,247,0.0,4.0,93,0.00,,,0.01,62.000000,,2013-02-16 01:41:00,
2013-02-15 17:51:00,41.0,39.0,-100.00,WSW,247,0.0,4.0,93,0.00,,,0.01,62.000000,,2013-02-16 01:51:00,
2013-02-15 18:21:00,40.0,38.0,-100.00,WNW,282,0.0,3.0,94,0.00,,,0.01,6.000000,,2013-02-16 02:21:00,
2013-02-15 18:31:00,40.0,38.0,-100.00,WNW,282,0.0,3.0,94,0.00,,,0.01,6.000000,,2013-02-16 02:31:00,
2013-02-15 18:42:00,40.0,38.0,-100.00,WNW,282,0.0,3.0,94,0.00,,,0.01,6.000000,,2013-02-16 02:42:00,
2013-02-15 18:52:00,40.0,38.0,-100.00,WNW,282,0.0,3.0,94,0.00,,,0.01,6.000000,,2013-02-16 02:52:00,
2013-02-15 19:21:00,37.0,35.0,-100.00,ESE,119,3.0,0.0,94,0.00,,,0.01,0.000000,,2013-02-16 03:21:00,
2013-02-15 19:31:00,37.0,35.0,-100.00,ESE,119,3.0,0.0,94,0.00,,,0.01,0.000000,,2013-02-16 03:31:00,
2013-02-15 19:41:00,37.0,35.0,-100.00,ESE,119,3.0,0.0,94,0.00,,,0.01,0.000000,,2013-02-16 03:41:00,
2013-02-15 19:52:00,37.0,35.0,-100.00,ESE,119,3.0,0.0,94,0.00,,,0.01,0.000000,,2013-02-16 03:52:00,
2013-02-15 20:21:00,41.0,40.0,-100.00,SE,133,4.0,6.0,95,0.00,,,0.00,0.000000,,2013-02-16 04:21:00,
2013-02-15 20:31:00,41.0,40.0,-100.00,SE,133,4.0,6.0,95,0.00,,,0.00,0.000000,,2013-02-16 04:31:00,
2013-02-15 20:41:00,41.0,40.0,-100.00,SE,133,4.0,6.0,95,0.00,,,0.00,0.000000,,2013-02-16 04:41:00,
2013-02-15 20:51:00,41.0,40.0,-100.00,SE,133,4.0,6.0,95,0.00,,,0.00,0.000000,,2013-02-16 04:51:00,
2013-02-15 21:21:00,39.0,38.0,-100.00,SE,139,4.0,7.0,95,0.00,,,0.00,0.000000,,2013-02-16 05:21:00,
2013-02-15 21:31:00,39.0,38.0,-100.00,SE,139,4.0,7.0,95,0.00,,,0.00,0.000000,,2013-02-16 05:31:00,
2013-02-15 21:42:00,39.0,38.0,-100.00,SE,139,4.0,7.0,95,0.00,,,0.00,0.000000,,2013-02-16 05:42:00,
2013-02-15 21:52:00,39.0,38.0,-100.00,SE,139,4.0,7.0,95,0.00,,,0.00,0.000000,,2013-02-16 05:52:00,
2013-02-15 22:21:00,40.0,37.0,-100.00,SE,136,4.0,7.0,90,0.00,,,0.00,0.000000,,2013-02-16 06:21:00,
2013-02-15 22:32:00,40.0,37.0,-100.00,SE,136,4.0,7.0,90,0.00,,,0.00,0.000000,,2013-02-16 06:32:00,
2013-02-15 22:42:00,40.0,37.0,-100.00,SE,136,4.0,7.0,90,0.00,,,0.00,0.000000,,2013-02-16 06:42:00,
2013-02-15 22:51:00,40.0,37.0,-100.00,SE,136,4.0,7.0,90,0.00,,,0.00,0.000000,,2013-02-16 06:51:00,
2013-02-15 23:21:00,42.0,38.0,-100.00,SE,135,3.0,8.0,87,0.00,,,0.00,0.000000,,2013-02-16 07:21:00,
2013-02-15 23:31:00,42.0,38.0,-100.00,SE,135,3.0,8.0,87,0.00,,,0.00,0.000000,,2013-02-16 07:31:00,
2013-02-15 23:42:00,42.0,38.0,-100.00,SE,135,3.0,8.0,87,0.00,,,0.00,0.000000,,2013-02-16 07:42:00,
2013-02-15 23:52:00,42.0,38.0,-100.00,SE,135,3.0,8.0,87,0.00,,,0.00,0.000000,,2013-02-16 07:52:00,